Terminal Aerodrome Forecast
Issued by NWS

Home | Current Version | Previous Version | Text Only | Print | Product List | Glossary On
Versions: 1 2 3 4 5 6 7 8 9 10 11 12 13 14 15 16 17
000
FTUS43 KDVN 221600 AAA
TAFCID
TAF AMD
KCID 221617Z 2216/2312 22013KT P6SM BKN035
     FM221900 24012KT P6SM SCT120
     FM222200 30012KT P6SM SCT050
     FM230200 34008KT P6SM SCT050=

USA.gov is the U.S. government's official web portal to all federal, state and local government web resources and services.